Stockwell, Indiana
Current Conditions -  °F | °C
As of 5:55 PM on Wednesday 22 Oct 2014 (Local Time) from KFKR Reporting Station
Clear Clear  
Wind Chill: 58°   Ceiling: Unl
Heat Index: 58°   Visibility: 10mi
Dew Point: 39°   Wind: 0mph
Humidity: 50%   Direction: NA
Pressure: 30.28"   Gusts: NA
Location:  40.29°N, 86.77°W
Report Text: KFKR 222155Z AUTO 00000KT 10SM CLR 14/04 A3028 RMK AO2 T01420039
Loading
Personal Weather Stations






























Interactive Weather Map
Tropical Storm Tracking
New forecast layout! Learn more

10-Day Weather Forecast

Advertisements
Track Severe Weather on mobile